Terminal Aerodrome Forecast
Issued by NWS St Louis, MO

Home | Current Version | Previous Version | Graphics & Text | Print | Product List | Glossary On
Versions: 1 2 3 4 5 6 7 8 9 10 11 12 13 14 15 16 17 18 19 20 21 22 23 24 25 26
814
FTUS43 KLSX 121130
TAFSTL
TAF
KSTL 121130Z 1212/1318 00000KT P6SM OVC035
     FM121600 31007KT P6SM BKN030
     FM121900 31014G24KT P6SM BKN035
     FM122200 32012G22KT P6SM SCT035
     FM130800 34008KT P6SM SCT150=

USA.gov is the U.S. government's official web portal to all federal, state and local government web resources and services.